Happy Valentine's Day! 

Flight Track Log - Related Links

Times and Time Zones

All times are in EDT time to prevent confusion due to time zone crossing. See the EJA831 flight status page for this flight to view local times or setup timezone preferences in your user account.


Time Position Orientation Groundspeed Altitude Reporting Facility
EDT Latitude Longitude Course Direction KTS MPH feet Rate Location/Type
Wed 12:41:55 PM 33.7689 -116.3058 342° North 162 186 16,000  Level Los Angeles Center
Wed 12:42:57 PM 33.8147 -116.3375 330° Northwest 177 204 16,000 -3,145 Level Los Angeles Center
Wed 12:43:59 PM 33.8642 -116.3658 335° Northwest 216 249 9,500 -1,839 Descending Los Angeles Center
Wed 12:45:01 PM 33.9244 -116.4044 332° Northwest 240 276 12,200 2,496 Climbing Los Angeles Center
Wed 12:46:04 PM 33.9897 -116.4475 331° Northwest 266 306 14,700 1,776 Climbing Los Angeles Center
Wed 12:47:00 PM 34.2388 -116.5622 342° North  Level FlightAware Approximate
Wed 12:47:06 PM 34.0789 -116.5044 332° Northwest 306 352 15,900  Level Los Angeles Center
Wed 12:48:08 PM 34.1539 -116.5394 339° North 308 354 16,100 1,355 Climbing Los Angeles Center
Wed 12:49:10 PM 34.2314 -116.5700 342° North 296 341 18,700 2,516 Climbing Los Angeles Center
Wed 12:50:12 PM 34.2908 -116.6286 321° Northwest 306 352 21,300 2,064 Climbing Los Angeles Center
Wed 12:51:15 PM 34.3158 -116.7250 287° West 299 344 23,000 1,728 Climbing Los Angeles Center
Wed 12:52:17 PM 34.3469 -116.8558 286° West 334 384 24,900 1,790 Climbing Los Angeles Center
Wed 12:53:19 PM 34.3728 -116.9653 286° West 338 389 26,700 1,597 Climbing Los Angeles Center
Wed 12:54:21 PM 34.4000 -117.0758 287° West 340 391 28,200 1,452 Climbing Los Angeles Center
Wed 12:55:23 PM 34.4269 -117.1911 286° West 349 402 29,700 1,440 Climbing Los Angeles Center
Wed 12:56:26 PM 34.4536 -117.3033 286° West 349 402 31,200 1,440 Climbing Los Angeles Center
Wed 12:57:28 PM 34.4803 -117.4169 286° West 349 402 32,700 1,597 Climbing Los Angeles Center
Wed 12:58:30 PM 34.5119 -117.5525 286° West 349 402 34,500 1,645 Climbing Los Angeles Center
Wed 12:59:32 PM 34.5381 -117.6642 286° West 348 400 36,100 1,500 Climbing Los Angeles Center
Wed 01:00:34 PM 34.5628 -117.7739 285° West 342 394 37,600 1,440 Climbing Los Angeles Center
Wed 01:01:37 PM 34.5869 -117.8794 286° West 331 381 39,100 1,152 Climbing Los Angeles Center
Wed 01:02:39 PM 34.6111 -117.9831 286° West 321 369 40,000 435 Climbing Los Angeles Center
Wed 01:03:41 PM 34.6481 -118.0881 293° West 346 398 40,000  Level Los Angeles Center
Wed 01:04:43 PM 34.7117 -118.1803 310° West 352 405 40,000  Level Los Angeles Center
Wed 01:05:45 PM 34.7906 -118.2961 310° West 367 422 40,000  Level Los Angeles Center
Wed 01:06:47 PM 34.8581 -118.3933 310° West 372 428 40,000  Level Los Angeles Center
Wed 01:07:50 PM 34.9214 -118.4853 310° West 376 433 40,000  Level Los Angeles Center
Wed 01:08:52 PM 35.0092 -118.5986 313° West 382 440 40,000  Level Los Angeles Center
Wed 01:09:54 PM 35.1069 -118.6450 339° North 386 444 40,000  Level Los Angeles Center
Wed 01:10:56 PM 35.2089 -118.6797 344° North 382 440 40,000  Level Los Angeles Center
Wed 01:11:58 PM 35.3117 -118.7122 346° North 383 441 40,000  Level Los Angeles Center
Wed 01:13:01 PM 35.4147 -118.7447 346° North 383 441 40,000  Level Los Angeles Center
Wed 01:14:03 PM 35.5375 -118.7833 346° North 380 437 40,000  Level Los Angeles Center
Wed 01:15:05 PM 35.6386 -118.8161 345° North 380 437 40,000  Level Los Angeles Center
Wed 01:16:07 PM 35.7392 -118.8494 345° North 378 435 40,000  Level Los Angeles Center
Wed 01:17:09 PM 35.8403 -118.8806 346° North 378 435 40,000  Level Los Angeles Center
Wed 01:18:11 PM 35.9417 -118.9147 345° North 378 435 40,000  Level Los Angeles Center
Wed 01:19:14 PM 36.0636 -118.9536 346° North 377 434 40,000  Level Los Angeles Center
Wed 01:20:16 PM 36.1647 -118.9867 345° North 377 434 40,000  Level Los Angeles Center
Wed 01:21:06 PM 36.2450 -119.0117 346° North 378 435 40,000  Level Oakland Center
Wed 01:22:07 PM 36.3472 -119.0458 345° North 380 437 40,000  Level Oakland Center
Wed 01:23:09 PM 36.4483 -119.0789 345° North 380 437 40,000  Level Oakland Center
Wed 01:24:10 PM 36.5500 -119.1117 345° North 379 436 40,000  Level Oakland Center
Wed 01:25:11 PM 36.6511 -119.1450 345° North 378 435 40,000  Level Oakland Center
Wed 01:26:13 PM 36.7744 -119.1861 345° North 381 438 40,000  Level Oakland Center
Wed 01:27:14 PM 36.8764 -119.2200 345° North 381 438 40,000  Level Oakland Center
Wed 01:28:16 PM 36.9786 -119.2528 346° North 379 436 40,000  Level Oakland Center
Wed 01:29:17 PM 37.0814 -119.2872 345° North 381 438 40,000  Level Oakland Center
Wed 01:30:18 PM 37.1836 -119.3219 345° North 381 438 40,000  Level Oakland Center
Wed 01:31:20 PM 37.2856 -119.3564 345° North 381 438 40,000  Level Oakland Center
Wed 01:32:21 PM 37.3881 -119.3903 345° North 381 438 40,000  Level Oakland Center
Wed 01:33:23 PM 37.4897 -119.4250 345° North 381 438 40,000  Level Oakland Center
Wed 01:34:24 PM 37.6131 -119.4656 345° North 380 437 40,000  Level Oakland Center
Wed 01:35:25 PM 37.7089 -119.4992 344° North 381 438 40,000  Level Oakland Center
Wed 01:36:27 PM 37.8111 -119.5331 345° North 381 438 40,000  Level Oakland Center
Wed 01:37:28 PM 37.9139 -119.5689 345° North 381 438 40,000  Level Oakland Center
Wed 01:38:30 PM 38.0150 -119.6044 345° North 380 437 40,000  Level Oakland Center
Wed 01:39:31 PM 38.1186 -119.6383 346° North 381 438 40,000  Level Oakland Center
Wed 01:40:33 PM 38.2431 -119.6800 345° North 383 441 40,000  Level Oakland Center
Wed 01:41:34 PM 38.3458 -119.7164 344° North 383 441 40,000  Level Oakland Center
Wed 01:42:36 PM 38.4469 -119.7514 345° North 383 441 40,000  Level Oakland Center
Wed 01:43:37 PM 38.5514 -119.7867 345° North 385 443 40,000  Level Oakland Center
Wed 01:44:39 PM 38.6556 -119.8239 344° North 385 443 40,000  Level Oakland Center
Wed 01:45:40 PM 38.7586 -119.8597 345° North 385 443 40,000  Level Oakland Center
Wed 01:46:42 PM 38.8622 -119.8961 345° North 385 443 40,000  Level Oakland Center
Wed 01:47:43 PM 38.9681 -119.9325 345° North 385 443 40,000  Level Oakland Center
Wed 01:48:45 PM 39.0942 -119.9767 345° North 387 445 40,000  Level Oakland Center
Wed 01:49:46 PM 39.1992 -120.0144 344° North 387 445 40,000  Level Oakland Center
Wed 01:50:48 PM 39.3053 -120.0519 345° North 389 448 40,000  Level Oakland Center
Wed 01:51:49 PM 39.4100 -120.0894 345° North 390 449 40,000  Level Oakland Center
Wed 01:52:51 PM 39.5117 -120.1250 345° North 390 449 40,000  Level Oakland Center
Wed 01:53:52 PM 39.6156 -120.1617 345° North 389 448 40,000  Level Oakland Center
Wed 01:54:54 PM 39.7178 -120.1989 344° North 387 445 40,000  Level Oakland Center
Wed 01:55:55 PM 39.8414 -120.2431 345° North 384 442 40,000  Level Oakland Center
Wed 01:56:57 PM 39.9436 -120.2803 344° North 384 442 40,000  Level Oakland Center
Wed 01:57:58 PM 40.0517 -120.3181 345° North 383 441 40,000  Level Oakland Center
Wed 01:59:00 PM 40.1542 -120.3564 344° North 383 441 40,000  Level Oakland Center
Wed 01:59:51 PM 40.2469 -120.3883 345° North 384 442 40,000  Level Seattle Center
Wed 02:00:52 PM 40.3475 -120.4253 344° North 382 440 40,000  Level Seattle Center
Wed 02:01:53 PM 40.4392 -120.4603 344° North 383 441 40,000  Level Seattle Center
Wed 02:02:55 PM 40.5419 -120.4969 345° North 383 441 40,000  Level Seattle Center
Wed 02:03:56 PM 40.6433 -120.5350 344° North 383 441 40,000  Level Seattle Center
Wed 02:04:57 PM 40.7661 -120.5806 344° North 382 440 40,000  Level Seattle Center
Wed 02:06:11 PM 40.8931 -120.6261 345° North 383 441 40,000  Level Oakland Center
Wed 02:06:59 PM 40.9708 -120.6567 343° North 382 440 40,000  Level Seattle Center
Wed 02:08:00 PM 41.0731 -120.6958 344° North 383 441 40,000  Level Seattle Center
Wed 02:09:01 PM 41.1739 -120.7342 344° North 380 437 40,000  Level Seattle Center
Wed 02:10:02 PM 41.2769 -120.7742 344° North 386 444 40,000  Level Seattle Center
Wed 02:11:03 PM 41.3797 -120.8119 345° North 385 443 40,000  Level Seattle Center
Wed 02:12:04 PM 41.4814 -120.8519 344° North 384 442 40,000  Level Seattle Center
Wed 02:13:05 PM 41.5828 -120.8897 344° North 383 441 40,000  Level Seattle Center
Wed 02:14:06 PM 41.6844 -120.9292 344° North 382 440 40,000  Level Seattle Center
Wed 02:15:08 PM 41.8067 -120.9750 344° North 381 438 40,000  Level Seattle Center
Wed 02:16:09 PM 41.9083 -121.0142 344° North 382 440 40,000  Level Seattle Center
Wed 02:17:10 PM 42.0086 -121.0531 344° North 378 435 40,000  Level Seattle Center
Wed 02:18:11 PM 42.1103 -121.0906 345° North 378 435 40,000  Level Seattle Center
Wed 02:19:12 PM 42.2114 -121.1325 343° North 383 441 40,000  Level Seattle Center
Wed 02:20:13 PM 42.3133 -121.1711 344° North 385 443 40,000  Level Seattle Center
Wed 02:21:14 PM 42.4139 -121.2106 344° North 381 438 40,000  Level Seattle Center
Wed 02:22:15 PM 42.5153 -121.2497 344° North 379 436 40,000  Level Seattle Center
Wed 02:23:16 PM 42.6167 -121.2900 344° North 380 437 40,000  Level Seattle Center
Wed 02:24:18 PM 42.7406 -121.3394 344° North 384 442 40,000  Level Seattle Center
Wed 02:25:19 PM 42.8425 -121.3819 343° North 386 444 40,000  Level Seattle Center
Wed 02:26:20 PM 42.9458 -121.4206 345° North 386 444 40,000  Level Seattle Center
Wed 02:27:21 PM 43.0486 -121.4633 343° North 386 444 40,000  Level Seattle Center
Wed 02:28:22 PM 43.1517 -121.5047 344° North 386 444 40,000  Level Seattle Center
Wed 02:29:23 PM 43.2550 -121.5456 344° North 386 444 40,000  Level Seattle Center
Wed 02:30:24 PM 43.3583 -121.5872 344° North 386 444 40,000  Level Seattle Center
Wed 02:31:26 PM 43.4606 -121.6283 344° North 386 444 40,000  Level Seattle Center
Wed 02:32:27 PM 43.5633 -121.6711 343° North 385 443 40,000  Level Seattle Center
Wed 02:33:28 PM 43.6661 -121.7111 344° North 385 443 40,000  Level Seattle Center
Wed 02:34:29 PM 43.7908 -121.7617 344° North 385 443 40,000  Level Seattle Center
Wed 02:35:30 PM 43.8833 -121.8011 343° North 387 445 40,000  Level Seattle Center
Wed 02:36:31 PM 43.9894 -121.8453 343° North 391 450 40,000  Level Seattle Center
Wed 02:37:32 PM 44.1097 -121.8914 345° North 392 451 40,000  Level Seattle Center
Wed 02:38:34 PM 44.2150 -121.9344 344° North 393 452 40,000  Level Seattle Center
Wed 02:39:35 PM 44.3192 -121.9797 343° North 393 452 40,000  Level Seattle Center
Wed 02:40:36 PM 44.4231 -122.0217 344° North 391 450 40,000  Level Seattle Center
Wed 02:41:37 PM 44.5286 -122.0661 343° North 393 452 40,000  Level Seattle Center
Wed 02:42:38 PM 44.6447 -122.1161 343° North 397 457 40,000  Level Seattle Center
Wed 02:43:40 PM 44.7517 -122.1603 344° North 400 460 40,000  Level Seattle Center
Wed 02:44:41 PM 44.8567 -122.2053 343° North 396 456 40,000  Level Seattle Center
Wed 02:45:42 PM 44.9478 -122.2453 343° North 386 444 40,000  Level Seattle Center
Wed 02:46:43 PM 45.0528 -122.2889 344° North 389 448 40,000 -98 Level Seattle Center
Wed 02:47:44 PM 45.1789 -122.3453 343° North 398 458 39,800 -927 Descending Seattle Center
Wed 02:48:46 PM 45.2839 -122.3900 343° North 398 458 38,100 -1,561 Descending Seattle Center
Wed 02:49:47 PM 45.3867 -122.4347 343° North 394 453 36,600 -1,574 Descending Seattle Center
Wed 02:50:48 PM 45.4919 -122.4783 344° North 394 453 34,900 -1,623 Descending Seattle Center
Wed 02:51:49 PM 45.5989 -122.5261 343° North 397 457 33,300 -1,525 Descending Seattle Center
Wed 02:52:50 PM 45.7053 -122.5717 343° North 400 460 31,800 -1,525 Descending Seattle Center
Wed 02:53:51 PM 45.8181 -122.6083 347° North 412 474 30,200 -1,659 Descending Seattle Center
Wed 02:54:53 PM 45.9333 -122.6367 350° North 421 484 28,400 -1,756 Descending Seattle Center
Wed 02:55:54 PM 46.0500 -122.6636 351° North 419 482 26,600 -1,967 Descending Seattle Center
Wed 02:56:55 PM 46.1825 -122.6986 350° North 414 476 24,400 -1,918 Descending Seattle Center
Wed 02:57:56 PM 46.2922 -122.7272 350° North 409 471 22,700 -1,672 Descending Seattle Center
Wed 02:58:57 PM 46.4008 -122.7569 349° North 402 463 21,000 -1,672 Descending Seattle Center
Wed 02:59:58 PM 46.5072 -122.7844 350° North 394 453 19,300 -1,623 Descending Seattle Center
Wed 03:00:59 PM 46.6133 -122.8089 351° North 391 450 17,700 -1,463 Descending Seattle Center
Wed 03:02:01 PM 46.7119 -122.8347 350° North 362 417 16,300 -1,630 Descending Seattle Center
Wed 03:02:20 PM 46.7542 -122.8486 347° North 353 406 15,500 -1,909 Descending Seattle Center
Wed 03:02:45 PM 46.7919 -122.8575 351° North 349 402 14,900 -1,571 Descending Seattle Center
Wed 03:03:02 PM 46.8200 -122.8625 353° North 350 403 14,400 -1,538 Descending Seattle Center
Wed 03:04:03 PM 46.8997 -122.8250 18° North 322 371 12,900 -1,486 Descending Seattle Center
Wed 03:04:47 PM 46.9408 -122.7617 46° Northeast 308 354 11,800 -1,574 Descending Seattle Center
Wed 03:05:04 PM 46.9592 -122.7336 46° Northeast 310 357 11,300 -1,522 Descending Seattle Center
Wed 03:05:54 PM 47.0103 -122.6594 45° Northeast 304 350 10,100 -1,279 Descending Seattle Center
Wed 03:06:05 PM 47.0183 -122.6450 51° Northeast 301 346 10,000 -1,300 Descending Seattle Center
Wed 03:06:54 PM 47.0639 -122.5817 43° Northeast 269 310 8,800 -1,475 Descending Seattle Center
Wed 03:07:06 PM 47.0758 -122.5628 47° Northeast 270 311 8,500 -1,475 Descending Seattle Center
Wed 03:07:55 PM 47.1144 -122.5089 44° Northeast 245 282 7,300 -1,475 Descending Seattle Center
Wed 03:08:07 PM 47.1256 -122.4936 43° Northeast 250 288 7,000 -1,279 Descending Seattle Center
Wed 03:08:56 PM 47.1611 -122.4475 41° Northeast 228 262 6,000 -1,161 Descending Seattle Center
Wed 03:09:09 PM 47.1728 -122.4314 43° Northeast 231 266 5,800 -1,475 Descending Seattle Center
Wed 03:09:57 PM 47.2133 -122.3733 44° Northeast 242 278 4,500 -1,574 Descending Seattle Center
Wed 03:10:10 PM 47.2214 -122.3625 42° Northeast 242 278 4,200 -393 Descending Seattle Center
Wed 03:10:58 PM 47.2578 -122.3033 48° Northeast 238 274 4,100 -98 Descending Seattle Center
Wed 03:11:11 PM 47.2733 -122.2928 25° Northeast 242 278 4,100  Level Seattle Center
Wed 03:11:59 PM 47.3189 -122.2731 16° North 229 264 4,100 -197 Level Seattle Center
Wed 03:12:12 PM 47.3336 -122.2675 14° North 229 264 3,900 -1,082 Descending Seattle Center
Wed 03:13:00 PM 47.3758 -122.2514 14° North 210 242 3,000 -787 Descending Seattle Center
Wed 03:13:13 PM 47.3897 -122.2464 14° North 211 243 3,100 -689 Climbing Seattle Center
Wed 03:14:01 PM 47.4333 -122.2328 12° North 184 212 2,300 -984 Descending Seattle Center
Wed 03:14:14 PM 47.4442 -122.2328 360° North 186 214 2,100 -764 Descending Seattle Center
Wed 03:14:56 PM 47.4667 -122.2503 332° Northwest 126 145 1,600 -787 Descending Seattle Center
Wed 03:15:15 PM 47.4764 -122.2594 327° Northwest 138 159 1,300 -900 Descending Seattle Center
Wed 03:15:56 PM 47.4969 -122.2731 336° Northwest 107 123 700 -787 Descending Seattle Center
Wed 03:16:16 PM 47.5044 -122.2806 326° Northwest 117 135 500 -600 Descending Seattle Center

Login

Don't have an account? Register now (free) for customized features, flight alerts, and more!